sensor_id;sensor_type;location;lat;lon;timestamp;pressure;altitude;pressure_sealevel;temperature;humidity
17362;BME280;8798;51.938;4.348;2023-02-04T00:00:30;103123.28;;;10.18;79.65
17362;BME280;8798;51.938;4.348;2023-02-04T00:03:03;103125.97;;;10.18;79.24
17362;BME280;8798;51.938;4.348;2023-02-04T00:05:33;103123.38;;;10.16;79.65
17362;BME280;8798;51.938;4.348;2023-02-04T00:08:01;103130.47;;;10.17;79.63
17362;BME280;8798;51.938;4.348;2023-02-04T00:10:29;103138.53;;;10.17;79.41
17362;BME280;8798;51.938;4.348;2023-02-04T00:12:57;103126.25;;;10.13;79.79
17362;BME280;8798;51.938;4.348;2023-02-04T00:15:25;103133.38;;;10.14;79.34
17362;BME280;8798;51.938;4.348;2023-02-04T00:17:53;103125.38;;;10.12;79.52
17362;BME280;8798;51.938;4.348;2023-02-04T00:20:21;103148.50;;;10.15;79.81
17362;BME280;8798;51.938;4.348;2023-02-04T00:22:51;103157.22;;;10.19;79.73
17362;BME280;8798;51.938;4.348;2023-02-04T00:25:18;103174.13;;;10.21;79.85
17362;BME280;8798;51.938;4.348;2023-02-04T00:27:46;103180.38;;;10.21;80.05
17362;BME280;8798;51.938;4.348;2023-02-04T00:30:14;103185.66;;;10.23;79.56
17362;BME280;8798;51.938;4.348;2023-02-04T00:32:43;103202.53;;;10.25;80.01
17362;BME280;8798;51.938;4.348;2023-02-04T00:35:14;103210.44;;;10.28;80.27
17362;BME280;8798;51.938;4.348;2023-02-04T00:37:42;103214.88;;;10.29;80.24
17362;BME280;8798;51.938;4.348;2023-02-04T00:40:12;103218.44;;;10.29;79.76
17362;BME280;8798;51.938;4.348;2023-02-04T00:42:39;103200.81;;;10.24;79.94
17362;BME280;8798;51.938;4.348;2023-02-04T00:45:08;103183.16;;;10.20;79.68
17362;BME280;8798;51.938;4.348;2023-02-04T00:47:36;103191.22;;;10.20;79.82
17362;BME280;8798;51.938;4.348;2023-02-04T00:50:05;103205.41;;;10.22;80.14
17362;BME280;8798;51.938;4.348;2023-02-04T00:52:33;103222.22;;;10.25;79.96
17362;BME280;8798;51.938;4.348;2023-02-04T00:55:01;103251.53;;;10.30;80.00
17362;BME280;8798;51.938;4.348;2023-02-04T00:57:30;103257.69;;;10.32;79.71
17362;BME280;8798;51.938;4.348;2023-02-04T00:59:58;103267.38;;;10.35;79.72
17362;BME280;8798;51.938;4.348;2023-02-04T01:02:25;103271.78;;;10.36;80.32
17362;BME280;8798;51.938;4.348;2023-02-04T01:04:53;103275.44;;;10.35;79.98
17362;BME280;8798;51.938;4.348;2023-02-04T01:07:22;103275.44;;;10.35;80.25
17362;BME280;8798;51.938;4.348;2023-02-04T01:09:50;103278.13;;;10.35;80.06
17362;BME280;8798;51.938;4.348;2023-02-04T01:12:17;103280.81;;;10.35;79.98
17362;BME280;8798;51.938;4.348;2023-02-04T01:14:49;103283.50;;;10.35;80.38
17362;BME280;8798;51.938;4.348;2023-02-04T01:17:17;103281.75;;;10.33;80.19
17362;BME280;8798;51.938;4.348;2023-02-04T01:19:45;103289.72;;;10.35;80.36
17362;BME280;8798;51.938;4.348;2023-02-04T01:22:13;103283.50;;;10.35;80.44
17362;BME280;8798;51.938;4.348;2023-02-04T01:24:41;103294.25;;;10.35;80.05
17362;BME280;8798;51.938;4.348;2023-02-04T01:27:09;103294.25;;;10.35;80.41
17362;BME280;8798;51.938;4.348;2023-02-04T01:29:36;103296.94;;;10.35;80.28
17362;BME280;8798;51.938;4.348;2023-02-04T01:32:05;103297.72;;;10.37;80.47
17362;BME280;8798;51.938;4.348;2023-02-04T01:34:33;103298.66;;;10.36;80.41
17362;BME280;8798;51.938;4.348;2023-02-04T01:37:01;103306.63;;;10.37;80.59
17362;BME280;8798;51.938;4.348;2023-02-04T01:39:29;103316.34;;;10.40;80.46
17362;BME280;8798;51.938;4.348;2023-02-04T01:41:57;103317.19;;;10.40;80.17
17362;BME280;8798;51.938;4.348;2023-02-04T01:44:26;103329.69;;;10.41;80.24
17362;BME280;8798;51.938;4.348;2023-02-04T01:46:54;103321.72;;;10.40;80.68
17362;BME280;8798;51.938;4.348;2023-02-04T01:49:24;103308.53;;;10.35;80.58
17362;BME280;8798;51.938;4.348;2023-02-04T01:51:52;103297.88;;;10.33;80.63
17362;BME280;8798;51.938;4.348;2023-02-04T01:54:20;103305.16;;;10.31;80.19
17362;BME280;8798;51.938;4.348;2023-02-04T01:56:48;103295.38;;;10.30;80.84
17362;BME280;8798;51.938;4.348;2023-02-04T01:59:17;103292.78;;;10.29;80.47
17362;BME280;8798;51.938;4.348;2023-02-04T02:01:47;103285.75;;;10.26;80.71
17362;BME280;8798;51.938;4.348;2023-02-04T02:04:17;103297.25;;;10.28;80.62
17362;BME280;8798;51.938;4.348;2023-02-04T02:06:51;103312.25;;;10.32;80.58
17362;BME280;8798;51.938;4.348;2023-02-04T02:09:20;103318.41;;;10.35;80.95
17362;BME280;8798;51.938;4.348;2023-02-04T02:11:48;103341.47;;;10.39;80.47
17362;BME280;8798;51.938;4.348;2023-02-04T02:14:16;103349.53;;;10.39;80.79
17362;BME280;8798;51.938;4.348;2023-02-04T02:16:44;103343.28;;;10.38;81.01
17362;BME280;8798;51.938;4.348;2023-02-04T02:19:16;103325.63;;;10.34;80.34
17362;BME280;8798;51.938;4.348;2023-02-04T02:21:49;103315.91;;;10.31;80.89
17362;BME280;8798;51.938;4.348;2023-02-04T02:24:26;103320.41;;;10.31;80.87
17362;BME280;8798;51.938;4.348;2023-02-04T02:26:55;103333.69;;;10.34;80.67
17362;BME280;8798;51.938;4.348;2023-02-04T02:29:24;103344.25;;;10.37;80.70
17362;BME280;8798;51.938;4.348;2023-02-04T02:31:53;103345.97;;;10.38;81.01
17362;BME280;8798;51.938;4.348;2023-02-04T02:34:23;103355.00;;;10.37;81.08
17362;BME280;8798;51.938;4.348;2023-02-04T02:36:51;103344.31;;;10.36;80.92
17362;BME280;8798;51.938;4.348;2023-02-04T02:39:19;103354.13;;;10.37;81.11
17362;BME280;8798;51.938;4.348;2023-02-04T02:41:49;103353.16;;;10.38;81.03
17362;BME280;8798;51.938;4.348;2023-02-04T02:44:18;103361.16;;;10.39;81.12
17362;BME280;8798;51.938;4.348;2023-02-04T02:46:46;103359.50;;;10.37;80.85
17362;BME280;8798;51.938;4.348;2023-02-04T02:49:15;103347.97;;;10.35;80.79
17362;BME280;8798;51.938;4.348;2023-02-04T02:51:45;103351.59;;;10.33;80.51
17362;BME280;8798;51.938;4.348;2023-02-04T02:54:19;103349.88;;;10.32;80.93
17362;BME280;8798;51.938;4.348;2023-02-04T02:56:49;103344.56;;;10.31;81.03
17362;BME280;8798;51.938;4.348;2023-02-04T02:59:18;103354.22;;;10.35;81.16
17362;BME280;8798;51.938;4.348;2023-02-04T03:01:49;103371.97;;;10.38;80.97
17362;BME280;8798;51.938;4.348;2023-02-04T03:04:19;103372.81;;;10.38;80.89
17362;BME280;8798;51.938;4.348;2023-02-04T03:06:48;103364.09;;;10.35;81.03
17362;BME280;8798;51.938;4.348;2023-02-04T03:09:17;103356.22;;;10.31;80.73
17362;BME280;8798;51.938;4.348;2023-02-04T03:11:45;103353.59;;;10.30;80.83
17362;BME280;8798;51.938;4.348;2023-02-04T03:14:15;103348.31;;;10.28;80.87
17362;BME280;8798;51.938;4.348;2023-02-04T03:16:45;103343.88;;;10.27;81.24
17362;BME280;8798;51.938;4.348;2023-02-04T03:19:14;103333.19;;;10.26;81.15
17362;BME280;8798;51.938;4.348;2023-02-04T03:21:42;103331.56;;;10.23;81.06
17362;BME280;8798;51.938;4.348;2023-02-04T03:24:12;103321.78;;;10.22;80.97
17362;BME280;8798;51.938;4.348;2023-02-04T03:26:40;103321.84;;;10.21;81.11
17362;BME280;8798;51.938;4.348;2023-02-04T03:29:08;103325.44;;;10.21;80.98
17362;BME280;8798;51.938;4.348;2023-02-04T03:31:38;103331.56;;;10.23;81.21
17362;BME280;8798;51.938;4.348;2023-02-04T03:34:06;103330.81;;;10.21;81.12
17362;BME280;8798;51.938;4.348;2023-02-04T03:36:34;103327.22;;;10.21;81.49
17362;BME280;8798;51.938;4.348;2023-02-04T03:39:02;103332.59;;;10.21;80.94
17362;BME280;8798;51.938;4.348;2023-02-04T03:41:30;103321.97;;;10.19;80.98
17362;BME280;8798;51.938;4.348;2023-02-04T03:43:58;103322.91;;;10.18;81.19
17362;BME280;8798;51.938;4.348;2023-02-04T03:46:25;103310.50;;;10.16;81.13
17362;BME280;8798;51.938;4.348;2023-02-04T03:48:55;103300.03;;;10.11;81.32
17362;BME280;8798;51.938;4.348;2023-02-04T03:51:23;103293.78;;;10.10;81.41
17362;BME280;8798;51.938;4.348;2023-02-04T03:53:51;103309.72;;;10.13;81.44
17362;BME280;8798;51.938;4.348;2023-02-04T03:56:19;103335.47;;;10.18;81.34
17362;BME280;8798;51.938;4.348;2023-02-04T03:58:47;103352.28;;;10.21;81.15
17362;BME280;8798;51.938;4.348;2023-02-04T04:01:15;103360.25;;;10.23;80.85
17362;BME280;8798;51.938;4.348;2023-02-04T04:03:43;103370.91;;;10.24;81.34
17362;BME280;8798;51.938;4.348;2023-02-04T04:06:12;103380.63;;;10.27;81.31
17362;BME280;8798;51.938;4.348;2023-02-04T04:08:40;103385.91;;;10.28;81.20
17362;BME280;8798;51.938;4.348;2023-02-04T04:11:07;103393.97;;;10.28;81.14
17362;BME280;8798;51.938;4.348;2023-02-04T04:13:35;103403.69;;;10.31;81.04
17362;BME280;8798;51.938;4.348;2023-02-04T04:16:03;103412.63;;;10.31;81.50
17362;BME280;8798;51.938;4.348;2023-02-04T04:18:31;103404.56;;;10.31;81.07
17362;BME280;8798;51.938;4.348;2023-02-04T04:20:59;103405.31;;;10.33;81.34
17362;BME280;8798;51.938;4.348;2023-02-04T04:23:28;103424.91;;;10.36;81.10
17362;BME280;8798;51.938;4.348;2023-02-04T04:25:56;103435.59;;;10.37;81.44
17362;BME280;8798;51.938;4.348;2023-02-04T04:28:24;103435.53;;;10.39;81.11
17362;BME280;8798;51.938;4.348;2023-02-04T04:30:52;103441.75;;;10.39;81.42
17362;BME280;8798;51.938;4.348;2023-02-04T04:33:20;103444.34;;;10.41;81.05
17362;BME280;8798;51.938;4.348;2023-02-04T04:35:47;103457.69;;;10.42;81.52
17362;BME280;8798;51.938;4.348;2023-02-04T04:38:15;103455.97;;;10.41;81.29
17362;BME280;8798;51.938;4.348;2023-02-04T04:40:44;103458.56;;;10.43;81.35
17362;BME280;8798;51.938;4.348;2023-02-04T04:43:12;103475.47;;;10.45;81.37
17362;BME280;8798;51.938;4.348;2023-02-04T04:45:40;103479.88;;;10.46;81.05
17362;BME280;8798;51.938;4.348;2023-02-04T04:48:08;103490.56;;;10.47;81.13
17362;BME280;8798;51.938;4.348;2023-02-04T04:50:35;103494.03;;;10.49;81.19
17362;BME280;8798;51.938;4.348;2023-02-04T04:53:03;103499.41;;;10.49;81.07
17362;BME280;8798;51.938;4.348;2023-02-04T04:55:32;103506.44;;;10.52;81.32
17362;BME280;8798;51.938;4.348;2023-02-04T04:58:01;103508.25;;;10.51;81.08
17362;BME280;8798;51.938;4.348;2023-02-04T05:00:29;103505.56;;;10.51;81.81
17362;BME280;8798;51.938;4.348;2023-02-04T05:02:57;103508.25;;;10.51;81.69
17362;BME280;8798;51.938;4.348;2023-02-04T05:05:25;103517.09;;;10.53;81.33
17362;BME280;8798;51.938;4.348;2023-02-04T05:07:53;103517.97;;;10.54;81.01
17362;BME280;8798;51.938;4.348;2023-02-04T05:10:21;103518.81;;;10.54;81.05
17362;BME280;8798;51.938;4.348;2023-02-04T05:12:49;103516.13;;;10.54;81.03
17362;BME280;8798;51.938;4.348;2023-02-04T05:15:18;103518.81;;;10.54;81.46
17362;BME280;8798;51.938;4.348;2023-02-04T05:17:47;103526.81;;;10.56;81.42
17362;BME280;8798;51.938;4.348;2023-02-04T05:20:16;103532.19;;;10.56;81.00
17362;BME280;8798;51.938;4.348;2023-02-04T05:22:44;103538.31;;;10.58;80.88
17362;BME280;8798;51.938;4.348;2023-02-04T05:25:12;103546.31;;;10.60;81.33
17362;BME280;8798;51.938;4.348;2023-02-04T05:27:42;103541.78;;;10.60;81.25
17362;BME280;8798;51.938;4.348;2023-02-04T05:30:11;103544.50;;;10.60;81.42
17362;BME280;8798;51.938;4.348;2023-02-04T05:32:40;103544.50;;;10.60;81.00
17362;BME280;8798;51.938;4.348;2023-02-04T05:35:08;103543.56;;;10.61;81.20
17362;BME280;8798;51.938;4.348;2023-02-04T05:37:36;103549.84;;;10.60;81.10
17362;BME280;8798;51.938;4.348;2023-02-04T05:40:04;103536.41;;;10.60;81.11
17362;BME280;8798;51.938;4.348;2023-02-04T05:42:32;103537.47;;;10.58;81.35
17362;BME280;8798;51.938;4.348;2023-02-04T05:45:00;103531.22;;;10.57;80.96
17362;BME280;8798;51.938;4.348;2023-02-04T05:47:28;103534.78;;;10.58;80.97
17362;BME280;8798;51.938;4.348;2023-02-04T05:49:57;103535.63;;;10.58;81.24
17362;BME280;8798;51.938;4.348;2023-02-04T05:52:25;103535.63;;;10.58;81.00
17362;BME280;8798;51.938;4.348;2023-02-04T05:54:53;103536.53;;;10.59;81.26
17362;BME280;8798;51.938;4.348;2023-02-04T05:57:21;103538.31;;;10.58;81.10
17362;BME280;8798;51.938;4.348;2023-02-04T05:59:49;103546.38;;;10.58;80.98
17362;BME280;8798;51.938;4.348;2023-02-04T06:02:16;103548.94;;;10.61;80.94
17362;BME280;8798;51.938;4.348;2023-02-04T06:04:45;103551.63;;;10.61;81.00
17362;BME280;8798;51.938;4.348;2023-02-04T06:07:14;103546.31;;;10.60;81.34
17362;BME280;8798;51.938;4.348;2023-02-04T06:09:42;103549.00;;;10.60;81.25
17362;BME280;8798;51.938;4.348;2023-02-04T06:12:10;103543.63;;;10.60;80.84
17362;BME280;8798;51.938;4.348;2023-02-04T06:14:38;103551.69;;;10.60;81.06
17362;BME280;8798;51.938;4.348;2023-02-04T06:17:06;103551.63;;;10.61;81.21
17362;BME280;8798;51.938;4.348;2023-02-04T06:19:34;103553.34;;;10.62;81.25
17362;BME280;8798;51.938;4.348;2023-02-04T06:22:02;103563.06;;;10.65;81.44
17362;BME280;8798;51.938;4.348;2023-02-04T06:24:31;103570.25;;;10.64;80.83
17362;BME280;8798;51.938;4.348;2023-02-04T06:26:59;103570.19;;;10.66;80.85
17362;BME280;8798;51.938;4.348;2023-02-04T06:29:27;103563.16;;;10.63;81.20
17362;BME280;8798;51.938;4.348;2023-02-04T06:31:54;103563.16;;;10.63;80.87
17362;BME280;8798;51.938;4.348;2023-02-04T06:34:22;103573.81;;;10.65;81.17
17362;BME280;8798;51.938;4.348;2023-02-04T06:36:50;103571.97;;;10.65;81.11
17362;BME280;8798;51.938;4.348;2023-02-04T06:39:18;103576.41;;;10.66;80.79
17362;BME280;8798;51.938;4.348;2023-02-04T06:41:47;103578.25;;;10.66;81.24
17362;BME280;8798;51.938;4.348;2023-02-04T06:44:15;103575.56;;;10.66;81.47
17362;BME280;8798;51.938;4.348;2023-02-04T06:46:43;103572.88;;;10.66;81.11
17362;BME280;8798;51.938;4.348;2023-02-04T06:49:11;103581.78;;;10.66;81.08
17362;BME280;8798;51.938;4.348;2023-02-04T06:51:38;103582.66;;;10.67;81.29
17362;BME280;8798;51.938;4.348;2023-02-04T06:54:06;103588.81;;;10.69;81.49
17362;BME280;8798;51.938;4.348;2023-02-04T06:56:34;103604.00;;;10.70;80.86
17362;BME280;8798;51.938;4.348;2023-02-04T06:59:03;103602.16;;;10.70;80.87
17362;BME280;8798;51.938;4.348;2023-02-04T07:01:31;103598.63;;;10.70;80.87
17362;BME280;8798;51.938;4.348;2023-02-04T07:03:59;103602.16;;;10.70;81.11
17362;BME280;8798;51.938;4.348;2023-02-04T07:06:27;103597.75;;;10.69;81.06
17362;BME280;8798;51.938;4.348;2023-02-04T07:08:55;103596.88;;;10.69;81.01
17362;BME280;8798;51.938;4.348;2023-02-04T07:11:23;103596.88;;;10.69;81.08
17362;BME280;8798;51.938;4.348;2023-02-04T07:13:51;103585.28;;;10.68;81.12
17362;BME280;8798;51.938;4.348;2023-02-04T07:16:20;103599.56;;;10.69;81.00
17362;BME280;8798;51.938;4.348;2023-02-04T07:18:48;103601.31;;;10.70;80.91
17362;BME280;8798;51.938;4.348;2023-02-04T07:21:16;103607.53;;;10.70;81.20
17362;BME280;8798;51.938;4.348;2023-02-04T07:23:44;103601.31;;;10.70;80.96
17362;BME280;8798;51.938;4.348;2023-02-04T07:26:11;103604.84;;;10.70;80.65
17362;BME280;8798;51.938;4.348;2023-02-04T07:28:39;103590.66;;;10.68;80.76
17362;BME280;8798;51.938;4.348;2023-02-04T07:31:07;103591.59;;;10.67;80.82
17362;BME280;8798;51.938;4.348;2023-02-04T07:33:37;103599.66;;;10.67;81.04
17362;BME280;8798;51.938;4.348;2023-02-04T07:36:05;103597.75;;;10.69;80.89
17362;BME280;8798;51.938;4.348;2023-02-04T07:38:33;103611.13;;;10.71;81.12
17362;BME280;8798;51.938;4.348;2023-02-04T07:41:01;103627.06;;;10.74;81.13
17362;BME280;8798;51.938;4.348;2023-02-04T07:43:29;103629.75;;;10.74;80.82
17362;BME280;8798;51.938;4.348;2023-02-04T07:45:57;103629.75;;;10.74;81.18
17362;BME280;8798;51.938;4.348;2023-02-04T07:48:24;103633.25;;;10.76;81.32
17362;BME280;8798;51.938;4.348;2023-02-04T07:50:54;103634.19;;;10.75;80.76
17362;BME280;8798;51.938;4.348;2023-02-04T07:53:21;103638.63;;;10.76;81.04
17362;BME280;8798;51.938;4.348;2023-02-04T07:55:49;103642.16;;;10.76;81.29
17362;BME280;8798;51.938;4.348;2023-02-04T07:58:17;103642.09;;;10.78;81.21
17362;BME280;8798;51.938;4.348;2023-02-04T08:00:45;103657.25;;;10.79;80.71
17362;BME280;8798;51.938;4.348;2023-02-04T08:03:13;103661.59;;;10.82;80.76
17362;BME280;8798;51.938;4.348;2023-02-04T08:05:40;103667.78;;;10.84;80.98
17362;BME280;8798;51.938;4.348;2023-02-04T08:08:10;103683.75;;;10.87;81.14
17362;BME280;8798;51.938;4.348;2023-02-04T08:10:37;103688.16;;;10.88;81.04
17362;BME280;8798;51.938;4.348;2023-02-04T08:13:05;103696.06;;;10.91;80.97
17362;BME280;8798;51.938;4.348;2023-02-04T08:15:33;103693.38;;;10.91;80.95
17362;BME280;8798;51.938;4.348;2023-02-04T08:18:01;103704.03;;;10.92;81.06
17362;BME280;8798;51.938;4.348;2023-02-04T08:20:29;103709.34;;;10.94;81.22
17362;BME280;8798;51.938;4.348;2023-02-04T08:22:57;103723.59;;;10.96;81.02
17362;BME280;8798;51.938;4.348;2023-02-04T08:25:27;103726.97;;;11.00;80.96
17362;BME280;8798;51.938;4.348;2023-02-04T08:27:55;103744.75;;;11.02;80.67
17362;BME280;8798;51.938;4.348;2023-02-04T08:30:23;103746.53;;;11.03;81.31
17362;BME280;8798;51.938;4.348;2023-02-04T08:32:50;103754.50;;;11.05;80.73
17362;BME280;8798;51.938;4.348;2023-02-04T08:35:18;103773.06;;;11.09;81.15
17362;BME280;8798;51.938;4.348;2023-02-04T08:37:46;103784.56;;;11.13;80.97
17362;BME280;8798;51.938;4.348;2023-02-04T08:40:14;103788.91;;;11.15;80.94
17362;BME280;8798;51.938;4.348;2023-02-04T08:42:43;103791.59;;;11.15;80.94
17362;BME280;8798;51.938;4.348;2023-02-04T08:45:11;103796.00;;;11.16;80.76
17362;BME280;8798;51.938;4.348;2023-02-04T08:47:39;103797.75;;;11.17;81.27
17362;BME280;8798;51.938;4.348;2023-02-04T08:50:09;103788.00;;;11.15;81.23
17362;BME280;8798;51.938;4.348;2023-02-04T08:52:37;103780.03;;;11.13;80.93
17362;BME280;8798;51.938;4.348;2023-02-04T08:55:05;103760.50;;;11.10;80.83
17362;BME280;8798;51.938;4.348;2023-02-04T08:57:33;103754.34;;;11.08;80.70
17362;BME280;8798;51.938;4.348;2023-02-04T09:00:03;103737.47;;;11.04;81.27
17362;BME280;8798;51.938;4.348;2023-02-04T09:02:31;103717.88;;;11.02;81.20
17362;BME280;8798;51.938;4.348;2023-02-04T09:04:58;103732.09;;;11.04;80.69
17362;BME280;8798;51.938;4.348;2023-02-04T09:07:26;103743.66;;;11.06;80.82
17362;BME280;8798;51.938;4.348;2023-02-04T09:09:54;103749.91;;;11.07;81.28
17362;BME280;8798;51.938;4.348;2023-02-04T09:12:22;103757.78;;;11.10;81.06
17362;BME280;8798;51.938;4.348;2023-02-04T09:14:50;103750.69;;;11.09;81.11
17362;BME280;8798;51.938;4.348;2023-02-04T09:17:19;103763.97;;;11.12;81.20
17362;BME280;8798;51.938;4.348;2023-02-04T09:19:47;103759.56;;;11.11;80.66
17362;BME280;8798;51.938;4.348;2023-02-04T09:22:14;103763.97;;;11.12;80.89
17362;BME280;8798;51.938;4.348;2023-02-04T09:24:42;103783.41;;;11.17;80.52
17362;BME280;8798;51.938;4.348;2023-02-04T09:27:10;103795.84;;;11.19;80.99
17362;BME280;8798;51.938;4.348;2023-02-04T09:29:38;103812.59;;;11.25;80.95
17362;BME280;8798;51.938;4.348;2023-02-04T09:32:06;103834.75;;;11.30;81.01
17362;BME280;8798;51.938;4.348;2023-02-04T09:34:35;103846.25;;;11.33;81.44
17362;BME280;8798;51.938;4.348;2023-02-04T09:37:03;103851.53;;;11.35;81.22
17362;BME280;8798;51.938;4.348;2023-02-04T09:39:30;103855.00;;;11.37;80.85
17362;BME280;8798;51.938;4.348;2023-02-04T09:41:58;103876.41;;;11.40;80.57
17362;BME280;8798;51.938;4.348;2023-02-04T09:44:27;103885.22;;;11.42;81.01
17362;BME280;8798;51.938;4.348;2023-02-04T09:46:58;103887.78;;;11.45;80.72
17362;BME280;8798;51.938;4.348;2023-02-04T09:49:27;103886.03;;;11.44;80.68
17362;BME280;8798;51.938;4.348;2023-02-04T09:51:57;103893.19;;;11.45;81.26
17362;BME280;8798;51.938;4.348;2023-02-04T09:54:25;103882.47;;;11.44;80.59
17362;BME280;8798;51.938;4.348;2023-02-04T09:56:53;103857.56;;;11.40;81.10
17362;BME280;8798;51.938;4.348;2023-02-04T09:59:25;103835.38;;;11.35;80.77
17362;BME280;8798;51.938;4.348;2023-02-04T10:01:56;103797.25;;;11.27;81.07
17362;BME280;8798;51.938;4.348;2023-02-04T10:04:26;103789.34;;;11.24;80.94
17362;BME280;8798;51.938;4.348;2023-02-04T10:06:56;103799.16;;;11.25;81.06
17362;BME280;8798;51.938;4.348;2023-02-04T10:09:25;103823.06;;;11.31;81.09
17362;BME280;8798;51.938;4.348;2023-02-04T10:11:53;103846.06;;;11.36;81.19
17362;BME280;8798;51.938;4.348;2023-02-04T10:14:22;103848.69;;;11.38;80.98
17362;BME280;8798;51.938;4.348;2023-02-04T10:16:53;103835.38;;;11.35;81.29
17362;BME280;8798;51.938;4.348;2023-02-04T10:19:26;103825.66;;;11.32;81.03
17362;BME280;8798;51.938;4.348;2023-02-04T10:21:56;103837.13;;;11.36;80.99
17362;BME280;8798;51.938;4.348;2023-02-04T10:24:25;103852.19;;;11.40;81.22
17362;BME280;8798;51.938;4.348;2023-02-04T10:27:06;103859.13;;;11.44;81.09
17362;BME280;8798;51.938;4.348;2023-02-04T10:29:34;103888.47;;;11.49;81.21
17362;BME280;8798;51.938;4.348;2023-02-04T10:32:02;103887.63;;;11.48;81.06
17362;BME280;8798;51.938;4.348;2023-02-04T10:34:33;103874.34;;;11.45;80.64
17362;BME280;8798;51.938;4.348;2023-02-04T10:37:18;103867.28;;;11.43;81.19
17362;BME280;8798;51.938;4.348;2023-02-04T10:39:46;103853.84;;;11.43;80.96
17362;BME280;8798;51.938;4.348;2023-02-04T10:42:20;103859.22;;;11.43;80.88
17362;BME280;8798;51.938;4.348;2023-02-04T10:44:48;103865.34;;;11.45;80.68
17362;BME280;8798;51.938;4.348;2023-02-04T10:47:18;103851.13;;;11.43;81.11
17362;BME280;8798;51.938;4.348;2023-02-04T10:49:54;103843.19;;;11.39;80.81
17362;BME280;8798;51.938;4.348;2023-02-04T10:52:32;103839.66;;;11.39;81.30
17362;BME280;8798;51.938;4.348;2023-02-04T10:55:02;103842.28;;;11.40;81.19
17362;BME280;8798;51.938;4.348;2023-02-04T10:57:32;103849.38;;;11.41;80.90
17362;BME280;8798;51.938;4.348;2023-02-04T11:00:03;103851.22;;;11.41;80.92
17362;BME280;8798;51.938;4.348;2023-02-04T11:02:40;103853.03;;;11.40;80.74
17362;BME280;8798;51.938;4.348;2023-02-04T11:05:13;103845.75;;;11.43;80.69
17362;BME280;8798;51.938;4.348;2023-02-04T11:07:43;103849.31;;;11.43;80.75
17362;BME280;8798;51.938;4.348;2023-02-04T11:10:13;103854.59;;;11.45;80.95
17362;BME280;8798;51.938;4.348;2023-02-04T11:12:43;103853.72;;;11.44;81.25
17362;BME280;8798;51.938;4.348;2023-02-04T11:15:44;103852.00;;;11.43;80.87
17362;BME280;8798;51.938;4.348;2023-02-04T11:18:27;103835.06;;;11.41;80.93
17362;BME280;8798;51.938;4.348;2023-02-04T11:20:57;103849.38;;;11.41;80.77
17362;BME280;8798;51.938;4.348;2023-02-04T11:23:32;103847.56;;;11.42;80.76
17362;BME280;8798;51.938;4.348;2023-02-04T11:26:07;103847.47;;;11.44;80.74
17362;BME280;8798;51.938;4.348;2023-02-04T11:29:07;103846.63;;;11.43;81.03
17362;BME280;8798;51.938;4.348;2023-02-04T11:31:42;103836.78;;;11.42;80.90
17362;BME280;8798;51.938;4.348;2023-02-04T11:34:25;103846.63;;;11.43;80.74
17362;BME280;8798;51.938;4.348;2023-02-04T11:37:03;103838.53;;;11.43;80.50
17362;BME280;8798;51.938;4.348;2023-02-04T11:39:35;103840.38;;;11.43;80.69
17362;BME280;8798;51.938;4.348;2023-02-04T11:42:04;103840.38;;;11.43;81.30
17362;BME280;8798;51.938;4.348;2023-02-04T11:44:33;103838.63;;;11.41;80.65
17362;BME280;8798;51.938;4.348;2023-02-04T11:47:01;103836.78;;;11.42;81.20
17362;BME280;8798;51.938;4.348;2023-02-04T11:49:29;103825.25;;;11.40;81.24
17362;BME280;8798;51.938;4.348;2023-02-04T11:52:04;103811.09;;;11.36;80.65
17362;BME280;8798;51.938;4.348;2023-02-04T11:54:36;103808.38;;;11.36;80.89
17362;BME280;8798;51.938;4.348;2023-02-04T11:57:04;103803.97;;;11.35;81.19
17362;BME280;8798;51.938;4.348;2023-02-04T11:59:32;103800.38;;;11.35;80.71
17362;BME280;8798;51.938;4.348;2023-02-04T12:02:04;103806.66;;;11.35;80.83
17362;BME280;8798;51.938;4.348;2023-02-04T12:04:32;103812.91;;;11.36;81.24
17362;BME280;8798;51.938;4.348;2023-02-04T12:07:01;103808.38;;;11.36;80.57
17362;BME280;8798;51.938;4.348;2023-02-04T12:09:30;103811.00;;;11.38;80.68
17362;BME280;8798;51.938;4.348;2023-02-04T12:12:01;103822.56;;;11.40;80.85
17362;BME280;8798;51.938;4.348;2023-02-04T12:14:31;103825.25;;;11.40;80.58
17362;BME280;8798;51.938;4.348;2023-02-04T12:17:00;103821.66;;;11.39;81.18
17362;BME280;8798;51.938;4.348;2023-02-04T12:19:29;103792.41;;;11.33;80.78
17362;BME280;8798;51.938;4.348;2023-02-04T12:21:57;103780.94;;;11.30;81.02
17362;BME280;8798;51.938;4.348;2023-02-04T12:24:25;103764.09;;;11.26;81.14
17362;BME280;8798;51.938;4.348;2023-02-04T12:26:53;103753.50;;;11.23;80.82
17362;BME280;8798;51.938;4.348;2023-02-04T12:29:22;103757.91;;;11.24;81.31
17362;BME280;8798;51.938;4.348;2023-02-04T12:31:50;103766.78;;;11.26;80.80
17362;BME280;8798;51.938;4.348;2023-02-04T12:34:18;103776.59;;;11.27;81.06
17362;BME280;8798;51.938;4.348;2023-02-04T12:36:46;103791.63;;;11.31;81.25
17362;BME280;8798;51.938;4.348;2023-02-04T12:39:14;103800.38;;;11.35;81.34
17362;BME280;8798;51.938;4.348;2023-02-04T12:41:42;103801.28;;;11.35;81.07
17362;BME280;8798;51.938;4.348;2023-02-04T12:44:10;103811.94;;;11.37;80.80
17362;BME280;8798;51.938;4.348;2023-02-04T12:46:39;103814.63;;;11.37;80.90
17362;BME280;8798;51.938;4.348;2023-02-04T12:49:07;103810.16;;;11.37;81.39
17362;BME280;8798;51.938;4.348;2023-02-04T12:51:35;103810.22;;;11.36;80.61
17362;BME280;8798;51.938;4.348;2023-02-04T12:54:03;103806.56;;;11.37;81.02
17362;BME280;8798;51.938;4.348;2023-02-04T12:56:31;103811.94;;;11.37;80.74
17362;BME280;8798;51.938;4.348;2023-02-04T12:58:58;103811.00;;;11.38;81.19
17362;BME280;8798;51.938;4.348;2023-02-04T13:01:26;103821.78;;;11.38;81.00
17362;BME280;8798;51.938;4.348;2023-02-04T13:03:56;103822.56;;;11.40;81.18
17362;BME280;8798;51.938;4.348;2023-02-04T13:06:24;103826.97;;;11.41;80.89
17362;BME280;8798;51.938;4.348;2023-02-04T13:08:51;103827.84;;;11.41;80.27